KAPA/APA METAR and TAF weather

Enter ICAO airport designator
Station Type Date Time Source
KAPA METAR 2022/06/25 22:53 UTC NOAA

KAPA 252253Z 31005KT 10SM FEW080 SCT140 BKN200 18/08 A3035 RMK AO2 SLP231 T01830083


Station Type Date Time Source
KAPA Decoded METAR 2022/06/25 22:53 UTC NOAA

DENVER CENTENNIAL AIRPORT, CO, United States (KAPA) 39-34N 104-51W 1775M
Jun 25, 2022 - 06:53 PM EDT / 2022.06.25 2253 UTC
Wind: from the NW (310 degrees) at 6 MPH (5 KT):0
Visibility: 10 mile(s):0
Sky conditions: mostly cloudy
Temperature: 64.9 F (18.3 C)
Dew Point: 46.9 F (8.3 C)
Relative Humidity: 52%
Pressure (altimeter): 30.35 in. Hg (1027 hPa)
ob: KAPA 252253Z 31005KT 10SM FEW080 SCT140 BKN200 18/08 A3035 RMK AO2 SLP231 T01830083
cycle: 23

Station Type Date Time Source
KAPA TAF 2022/06/25 23:59 UTC NOAA

TAF
AMD KAPA 252259Z 2523/2618 32007KT P6SM SCT045 BKN120
TEMPO 2600/2604 BKN045
FM260400 13007KT P6SM VCSH BKN035
FM260800 13007KT P6SM VCSH SCT020
FM261400 VRB05KT P6SM VCSH FEW010 BKN015 OVC025

Example: see airport list